Time;durP1;ratioP1;P1;durP2;ratioP2;P2;SDS_P1;SDS_P2;PMS_P1;PMS_P2;Temp;Humidity;BMP_temperature;BMP_pressure;BME280_temperature;BME280_humidity;BME280_pressure;Samples;Min_cycle;Max_cycle;Signal;HPM_P1;HPM_P2
2022/04/19 00:01:00;;;;;;;1.40;1.30;;;3.70;99.90;2.70;100287;;;;571947;247;24117;-79
2022/04/19 00:03:28;;;;;;;2.83;1.73;;;3.60;99.90;2.60;100286;;;;575312;247;24148;-78
2022/04/19 00:05:56;;;;;;;2.30;1.80;;;3.60;99.90;2.60;100290;;;;572145;247;24166;-78
2022/04/19 00:08:24;;;;;;;2.73;1.47;;;3.50;99.90;2.50;100298;;;;580820;243;24153;-79
2022/04/19 00:10:52;;;;;;;3.03;2.20;;;3.40;99.90;2.50;100280;;;;572215;247;24143;-79
2022/04/19 00:13:20;;;;;;;1.97;1.73;;;3.40;99.90;2.50;100280;;;;572144;247;24080;-79
2022/04/19 00:15:48;;;;;;;3.53;2.07;;;3.40;99.90;2.60;100283;;;;572234;245;24095;-79
2022/04/19 00:18:19;;;;;;;2.50;1.73;;;3.50;99.90;2.60;100287;;;;573548;247;24131;-79
2022/04/19 00:20:45;;;;;;;2.63;2.07;;;3.50;99.90;2.60;100280;;;;572701;247;24126;-79
2022/04/19 00:23:17;;;;;;;2.77;1.80;;;3.60;99.90;2.70;100279;;;;572474;247;24135;-79
2022/04/19 00:25:41;;;;;;;2.57;1.47;;;3.50;99.90;2.70;100295;;;;571210;251;24134;-79
2022/04/19 00:28:09;;;;;;;4.97;2.00;;;3.60;99.90;2.70;100285;;;;562803;251;24157;-80
2022/04/19 00:30:37;;;;;;;4.93;1.57;;;3.60;99.90;2.70;100277;;;;562864;251;26289;-79
2022/04/19 00:33:06;;;;;;;6.63;1.53;;;3.70;99.90;2.80;100286;;;;571366;251;24177;-79
2022/04/19 00:35:34;;;;;;;3.77;1.47;;;3.70;99.90;2.80;100286;;;;562502;251;24204;-79
2022/04/19 00:38:03;;;;;;;1.90;1.70;;;3.70;99.90;2.80;100266;;;;562530;251;24195;-79
2022/04/19 00:40:35;;;;;;;2.57;1.60;;;3.80;99.90;2.90;100273;;;;562214;251;24160;-78
2022/04/19 00:43:02;;;;;;;3.57;1.90;;;3.70;99.90;3.00;100268;;;;562205;251;25171;-78
2022/04/19 00:45:30;;;;;;;1.73;1.43;;;3.90;99.90;3.10;100273;;;;570293;251;24207;-80
2022/04/19 00:47:55;;;;;;;1.63;1.53;;;4.00;99.90;3.20;100273;;;;562431;251;24150;-79
2022/04/19 00:50:26;;;;;;;2.70;1.27;;;4.00;99.90;3.20;100264;;;;570770;248;24122;-79
2022/04/19 00:52:51;;;;;;;1.50;1.40;;;4.10;99.90;3.30;100265;;;;562440;251;24121;-81
2022/04/19 00:55:22;;;;;;;3.67;1.40;;;4.20;99.90;3.40;100269;;;;562535;251;24135;-77
2022/04/19 00:57:48;;;;;;;2.23;2.03;;;4.30;99.90;3.40;100250;;;;562689;250;25217;-79
2022/04/19 01:00:16;;;;;;;2.93;1.30;;;4.30;99.90;3.50;100249;;;;569516;251;24125;-78
2022/04/19 01:02:44;;;;;;;4.60;1.57;;;4.40;99.90;3.60;100252;;;;560823;252;24190;-78
2022/04/19 01:05:13;;;;;;;1.43;1.03;;;4.50;99.90;3.60;100238;;;;569788;247;24186;-78
2022/04/19 01:07:41;;;;;;;1.70;1.60;;;4.50;99.90;3.60;100240;;;;571928;247;24094;-79
2022/04/19 01:10:09;;;;;;;3.80;1.40;;;4.50;99.90;3.70;100240;;;;572001;247;24093;-79
2022/04/19 01:15:23;;;;;;;2.17;1.67;;;4.50;99.90;3.70;100230;;;;572296;247;24080;-80
2022/04/19 01:17:51;;;;;;;3.93;1.70;;;4.50;99.90;3.60;100231;;;;572196;247;24093;-79
2022/04/19 01:20:20;;;;;;;2.70;1.40;;;4.50;99.90;3.60;100240;;;;570718;251;24121;-79
2022/04/19 01:22:49;;;;;;;3.70;2.50;;;4.40;99.90;3.50;100231;;;;571220;247;24127;-80
2022/04/19 01:25:18;;;;;;;4.23;2.27;;;4.40;99.90;3.50;100227;;;;571788;251;24157;-80
2022/04/19 01:27:44;;;;;;;3.50;1.93;;;4.40;99.90;3.50;100216;;;;553352;255;24157;-80
2022/04/19 01:30:12;;;;;;;6.60;2.30;;;4.40;99.90;3.50;100220;;;;564484;250;24077;-79
2022/04/19 01:32:40;;;;;;;1.63;1.53;;;4.30;99.90;3.40;100212;;;;554207;255;24163;-81
2022/04/19 01:35:14;;;;;;;1.17;1.07;;;4.30;99.90;3.40;100229;;;;564144;250;24143;-79
2022/04/19 01:37:44;;;;;;;5.90;1.53;;;4.30;99.90;3.40;100237;;;;553698;255;24168;-78
2022/04/19 01:40:18;;;;;;;1.67;1.57;;;4.20;99.90;3.40;100219;;;;572479;245;24098;-80
2022/04/19 01:42:49;;;;;;;1.27;1.17;;;4.30;99.90;3.40;100222;;;;572802;250;24097;-79
2022/04/19 01:45:20;;;;;;;2.20;1.17;;;4.30;99.90;3.50;100217;;;;563823;247;24082;-79
2022/04/19 01:47:48;;;;;;;2.23;1.40;;;4.30;99.90;3.50;100215;;;;571995;251;24172;-78
2022/04/19 01:50:18;;;;;;;4.70;1.53;;;4.30;99.90;3.50;100210;;;;571791;251;25139;-78
2022/04/19 01:52:44;;;;;;;1.90;1.43;;;4.40;99.90;3.50;100203;;;;562900;251;24104;-79
2022/04/19 01:55:13;;;;;;;5.30;1.33;;;4.30;99.90;3.50;100213;;;;562804;249;24089;-80
2022/04/19 01:57:40;;;;;;;2.60;1.40;;;4.40;99.90;3.50;100212;;;;552654;255;24175;-80
2022/04/19 02:00:08;;;;;;;1.70;1.00;;;4.30;99.90;3.50;100217;;;;567056;251;24179;-79
2022/04/19 02:02:40;;;;;;;1.03;1.03;;;4.30;99.90;3.50;100215;;;;552825;255;24165;-79
2022/04/19 02:05:05;;;;;;;1.87;1.17;;;4.40;99.90;3.50;100219;;;;562518;251;24146;-79
2022/04/19 02:07:32;;;;;;;1.83;1.30;;;4.30;99.90;3.50;100215;;;;563027;251;24086;-79
2022/04/19 02:10:00;;;;;;;4.03;1.17;;;4.40;99.90;3.60;100220;;;;552713;256;24165;-80
2022/04/19 02:12:28;;;;;;;4.27;1.37;;;4.40;99.90;3.70;100211;;;;563029;250;24117;-79
2022/04/19 02:14:56;;;;;;;2.90;1.50;;;4.50;99.90;3.70;100201;;;;570655;251;24326;-79
2022/04/19 02:17:24;;;;;;;4.23;1.70;;;4.60;99.90;3.80;100205;;;;563387;251;24103;-78
2022/04/19 02:20:01;;;;;;;2.27;1.40;;;4.60;99.90;3.80;100204;;;;572052;251;24114;-79
2022/04/19 02:22:30;;;;;;;2.00;1.20;;;4.70;99.90;3.90;100210;;;;563099;251;24150;-79
2022/04/19 02:24:57;;;;;;;5.00;1.87;;;4.70;99.90;3.80;100213;;;;557822;251;35198;-79
2022/04/19 02:27:24;;;;;;;4.27;1.90;;;4.70;99.90;3.90;100214;;;;567172;247;24138;-80
2022/04/19 02:29:54;;;;;;;2.10;1.90;;;4.80;99.90;3.90;100220;;;;570942;251;24098;-79
2022/04/19 02:32:18;;;;;;;1.93;1.57;;;4.80;99.90;4.00;100215;;;;563043;251;24118;-79
2022/04/19 02:34:47;;;;;;;4.25;2.15;;;4.90;99.90;4.00;100221;;;;558381;250;35150;-80
2022/04/19 02:37:15;;;;;;;4.63;1.73;;;4.90;99.90;4.10;100219;;;;571005;251;24148;-79
2022/04/19 02:39:43;;;;;;;4.30;1.33;;;5.00;99.90;4.10;100214;;;;563995;250;24097;-80
2022/04/19 02:42:11;;;;;;;1.50;1.30;;;5.00;99.90;4.20;100210;;;;572161;250;24093;-79
2022/04/19 02:44:39;;;;;;;1.23;1.10;;;5.10;99.90;4.20;100207;;;;563768;250;24105;-79
2022/04/19 02:47:07;;;;;;;2.10;1.20;;;5.10;99.90;4.20;100207;;;;563802;250;24081;-78
2022/04/19 02:49:38;;;;;;;1.40;1.27;;;5.10;99.90;4.20;100213;;;;571198;246;24090;-80
2022/04/19 02:52:03;;;;;;;1.30;1.20;;;5.10;99.90;4.30;100218;;;;563145;251;24222;-79
2022/04/19 02:54:31;;;;;;;2.10;1.10;;;5.10;99.90;4.30;100221;;;;563459;251;24094;-79
2022/04/19 02:56:59;;;;;;;4.53;1.37;;;5.20;99.90;4.30;100214;;;;571099;251;24075;-79
2022/04/19 02:59:27;;;;;;;1.10;1.10;;;5.20;99.90;4.30;100219;;;;571035;246;24137;-78
2022/04/19 03:01:55;;;;;;;1.60;1.50;;;5.10;99.90;4.30;100214;;;;570950;251;24131;-79
2022/04/19 03:04:23;;;;;;;1.60;1.10;;;5.20;99.90;4.30;100217;;;;571149;246;24093;-79
2022/04/19 03:06:51;;;;;;;3.40;1.77;;;5.10;99.90;4.30;100221;;;;563407;251;24176;-79
2022/04/19 03:09:19;;;;;;;1.40;1.30;;;5.20;99.90;4.30;100213;;;;570908;251;24086;-80
2022/04/19 03:11:47;;;;;;;2.77;1.20;;;5.20;99.90;4.30;100220;;;;570992;251;24149;-77
2022/04/19 03:14:17;;;;;;;3.53;1.60;;;5.20;99.90;4.30;100208;;;;570872;251;24152;-79
2022/04/19 03:16:43;;;;;;;2.67;1.60;;;5.10;99.90;4.30;100214;;;;570773;251;24093;-79
2022/04/19 03:19:13;;;;;;;3.13;1.77;;;5.10;99.90;4.20;100211;;;;570690;251;24120;-79
2022/04/19 03:21:39;;;;;;;1.70;1.40;;;5.10;99.90;4.20;100203;;;;570423;251;24134;-79
2022/04/19 03:29:41;;;;;;;1.30;1.20;;;5.00;99.90;4.20;100208;;;;563304;251;24147;-80
2022/04/19 03:32:09;;;;;;;0.80;0.77;;;5.10;99.90;4.20;100197;;;;573286;243;24114;-80
2022/04/19 03:34:34;;;;;;;4.23;1.40;;;5.10;99.90;4.20;100201;;;;567595;251;24116;-79
2022/04/19 03:37:02;;;;;;;2.43;1.37;;;5.10;99.90;4.20;100209;;;;563322;251;24175;-80
2022/04/19 03:39:30;;;;;;;2.23;1.43;;;5.10;99.90;4.30;100209;;;;570189;249;24151;-80
2022/04/19 03:41:58;;;;;;;3.17;1.30;;;5.10;99.90;4.30;100219;;;;560771;252;24123;-80
2022/04/19 03:44:26;;;;;;;2.83;1.43;;;5.10;99.90;4.30;100228;;;;576803;248;24128;-79
2022/04/19 03:47:10;;;;;;;2.23;1.50;;;5.20;99.90;4.30;100222;;;;567696;249;24098;-80
2022/04/19 03:49:38;;;;;;;2.47;1.30;;;5.10;99.90;4.30;100219;;;;567840;249;24102;-79
2022/04/19 03:52:06;;;;;;;2.23;1.57;;;5.20;99.90;4.30;100229;;;;566028;248;24145;-79
2022/04/19 03:54:37;;;;;;;1.90;1.47;;;5.20;99.90;4.30;100230;;;;569030;248;24098;-79
2022/04/19 03:57:07;;;;;;;2.33;1.37;;;5.20;99.90;4.40;100221;;;;566356;249;24152;-79
2022/04/19 03:59:34;;;;;;;7.30;1.50;;;5.20;99.90;4.40;100215;;;;568659;249;24073;-80
2022/04/19 04:02:02;;;;;;;3.63;1.63;;;5.20;99.90;4.40;100217;;;;568349;249;24100;-79
2022/04/19 04:04:34;;;;;;;4.10;1.77;;;5.20;99.90;4.40;100208;;;;568332;249;24061;-81
2022/04/19 04:07:04;;;;;;;3.57;1.90;;;5.20;99.90;4.40;100220;;;;568314;249;24153;-80
2022/04/19 04:09:35;;;;;;;2.50;1.67;;;5.30;99.90;4.50;100210;;;;567650;249;24147;-80
2022/04/19 04:12:02;;;;;;;1.83;1.60;;;5.30;99.90;4.50;100220;;;;568278;249;24094;-80
2022/04/19 04:14:30;;;;;;;1.33;1.33;;;5.40;99.90;4.50;100230;;;;564314;249;24115;-80
2022/04/19 04:16:58;;;;;;;3.47;1.50;;;5.40;99.90;4.60;100236;;;;568152;249;25199;-79
2022/04/19 04:19:26;;;;;;;2.57;1.90;;;5.40;99.90;4.60;100228;;;;566212;249;24187;-79
2022/04/19 04:21:53;;;;;;;1.27;1.23;;;5.40;99.90;4.60;100238;;;;568036;249;24108;-78
2022/04/19 04:24:21;;;;;;;2.37;1.27;;;5.50;99.90;4.60;100227;;;;568117;249;24123;-79
2022/04/19 04:26:49;;;;;;;7.03;2.00;;;5.50;99.90;4.60;100240;;;;571882;250;24449;-78
2022/04/19 04:29:17;;;;;;;2.70;1.77;;;5.50;99.90;4.70;100243;;;;565125;249;24182;-80
2022/04/19 04:31:46;;;;;;;3.53;1.83;;;5.60;99.90;4.70;100237;;;;567019;251;24101;-80
2022/04/19 04:34:14;;;;;;;2.03;1.53;;;5.50;99.90;4.70;100246;;;;563712;247;24121;-80
2022/04/19 04:36:42;;;;;;;3.60;2.37;;;5.60;99.90;4.80;100249;;;;572868;247;24191;-80
2022/04/19 04:39:09;;;;;;;4.93;2.50;;;5.70;99.90;4.90;100259;;;;564517;251;24097;-79
2022/04/19 04:41:37;;;;;;;6.17;2.20;;;5.70;99.90;4.90;100265;;;;577619;242;24070;-79
2022/04/19 04:44:05;;;;;;;15.87;2.80;;;5.80;99.90;5.00;100255;;;;572943;246;24117;-80
2022/04/19 04:52:07;;;;;;;3.93;2.10;;;5.90;99.90;5.20;100260;;;;569272;248;25125;-78
2022/04/19 04:54:37;;;;;;;6.30;2.40;;;6.00;99.90;5.20;100269;;;;569755;243;24146;-78
2022/04/19 04:57:02;;;;;;;3.77;2.50;;;6.00;99.90;5.30;100282;;;;566714;251;24130;-80
2022/04/19 04:59:30;;;;;;;6.80;2.60;;;6.10;99.90;5.30;100278;;;;571002;251;24159;-80
2022/04/19 05:01:58;;;;;;;4.00;2.53;;;6.20;99.90;5.40;100276;;;;564057;243;24141;-80
2022/04/19 05:04:26;;;;;;;9.70;2.47;;;6.20;99.90;5.40;100276;;;;583415;244;24157;-79
2022/04/19 05:06:54;;;;;;;3.93;2.03;;;6.20;99.90;5.40;100274;;;;563932;248;24106;-79
2022/04/19 05:09:22;;;;;;;6.80;2.90;;;6.20;99.90;5.40;100266;;;;569243;248;24150;-79
2022/04/19 05:11:53;;;;;;;5.93;2.40;;;6.30;99.90;5.40;100266;;;;572812;247;24086;-79
2022/04/19 05:14:21;;;;;;;2.40;2.20;;;6.30;99.90;5.50;100266;;;;565569;250;24174;-80
2022/04/19 05:16:49;;;;;;;3.47;2.43;;;6.30;99.90;5.50;100262;;;;570933;247;24144;-79
2022/04/19 05:19:16;;;;;;;6.87;3.28;;;6.40;99.90;5.50;100270;;;;548537;255;35343;-80
2022/04/19 05:21:44;;;;;;;4.93;2.40;;;6.40;99.90;5.60;100261;;;;563594;251;26253;-78
2022/04/19 05:24:12;;;;;;;7.63;2.67;;;6.40;99.90;5.60;100263;;;;563559;251;24147;-78
2022/04/19 05:26:40;;;;;;;7.87;2.37;;;6.50;99.90;5.70;100262;;;;560437;255;24136;-79
2022/04/19 05:29:08;;;;;;;8.63;2.57;;;6.50;99.90;5.80;100261;;;;553238;255;24134;-79
2022/04/19 05:31:36;;;;;;;3.53;2.50;;;6.60;99.90;5.80;100268;;;;568013;249;24097;-79
2022/04/19 05:34:04;;;;;;;3.80;1.83;;;6.60;99.90;5.90;100263;;;;571218;249;24118;-79
2022/04/19 05:36:32;;;;;;;9.80;2.60;;;6.70;99.90;6.00;100260;;;;563342;251;24102;-79
2022/04/19 05:39:00;;;;;;;3.97;2.73;;;6.80;99.90;6.10;100257;;;;563077;251;24041;-79
2022/04/19 05:41:28;;;;;;;5.73;2.40;;;6.90;99.90;6.20;100258;;;;562838;251;24115;-79
2022/04/19 05:43:55;;;;;;;8.70;2.60;;;7.00;99.90;6.30;100262;;;;563109;251;24128;-78
2022/04/19 05:46:23;;;;;;;12.20;2.70;;;7.10;99.90;6.40;100255;;;;562562;251;24301;-78
2022/04/19 05:48:52;;;;;;;12.30;2.77;;;7.30;99.90;6.60;100260;;;;573186;247;24109;-80
2022/04/19 05:51:21;;;;;;;14.18;3.62;;;7.50;99.90;6.70;100260;;;;557787;251;35434;-79
2022/04/19 05:53:49;;;;;;;6.87;2.33;;;7.40;99.90;6.80;100257;;;;572862;247;24099;-80
2022/04/19 05:56:17;;;;;;;12.00;2.63;;;7.60;99.90;7.00;100274;;;;561394;255;24120;-80
2022/04/19 05:58:45;;;;;;;4.13;2.07;;;7.70;99.90;7.10;100270;;;;559871;256;24184;-81
2022/04/19 06:01:13;;;;;;;10.37;2.83;;;7.80;99.90;7.20;100271;;;;561860;251;24112;-80
2022/04/19 06:06:26;;;;;;;7.40;1.73;;;8.00;99.90;7.40;100281;;;;568867;245;25230;-80
2022/04/19 06:08:54;;;;;;;1.60;1.40;;;8.20;99.90;7.50;100278;;;;575025;241;24026;-79
2022/04/19 06:11:22;;;;;;;2.00;1.60;;;8.20;99.90;7.60;100276;;;;575360;245;24108;-79
2022/04/19 06:13:50;;;;;;;1.77;1.30;;;8.30;99.90;7.60;100286;;;;563967;249;24076;-81
2022/04/19 06:16:21;;;;;;;4.32;1.70;;;8.40;99.90;7.70;100285;;;;564323;248;35089;-81
2022/04/19 06:18:46;;;;;;;4.80;1.85;;;8.40;99.90;7.80;100285;;;;568166;250;35102;-81
2022/04/19 06:21:14;;;;;;;2.00;1.40;;;8.50;99.90;7.80;100284;;;;568713;249;24127;-81
2022/04/19 06:23:42;;;;;;;1.33;1.20;;;8.60;99.90;7.80;100292;;;;564475;251;24148;-80
2022/04/19 06:26:10;;;;;;;3.33;1.10;;;8.60;99.90;7.80;100283;;;;568425;249;24177;-82
2022/04/19 06:28:38;;;;;;;1.00;0.90;;;8.60;99.90;7.80;100288;;;;564357;251;24184;-80
2022/04/19 06:31:06;;;;;;;1.10;1.00;;;8.60;99.90;7.80;100294;;;;568793;249;24130;-81
2022/04/19 06:33:34;;;;;;;4.83;1.97;;;8.60;99.90;7.80;100293;;;;568298;248;24110;-80
2022/04/19 06:36:03;;;;;;;1.80;1.60;;;8.60;99.90;7.80;100297;;;;563556;251;24073;-80
2022/04/19 06:38:30;;;;;;;1.77;1.63;;;8.60;99.90;7.90;100301;;;;563548;251;24089;-81
2022/04/19 06:40:59;;;;;;;2.50;1.03;;;8.60;99.90;7.80;100293;;;;563740;251;24074;-82
2022/04/19 06:43:26;;;;;;;1.07;1.00;;;8.60;99.90;7.90;100292;;;;563719;251;24140;-81
2022/04/19 06:45:54;;;;;;;6.37;1.23;;;8.70;99.90;8.00;100303;;;;563599;250;24085;-82
2022/04/19 06:48:21;;;;;;;4.60;1.90;;;8.80;99.90;8.10;100291;;;;562353;252;24170;-81
2022/04/19 06:50:50;;;;;;;1.20;1.10;;;8.80;99.90;8.20;100292;;;;558643;249;24205;-82
2022/04/19 06:53:17;;;;;;;2.23;1.60;;;9.00;99.90;8.40;100303;;;;560905;252;24133;-81
2022/04/19 06:55:49;;;;;;;1.60;1.20;;;9.30;99.90;8.50;100297;;;;557747;254;24108;-81
2022/04/19 06:58:14;;;;;;;1.77;1.40;;;9.20;99.90;8.70;100290;;;;557622;248;24135;-81
2022/04/19 07:00:42;;;;;;;0.70;0.70;;;9.40;99.90;8.90;100296;;;;572254;247;24115;-81
2022/04/19 07:03:10;;;;;;;1.20;1.03;;;9.60;99.90;9.00;100291;;;;575138;249;24139;-81
2022/04/19 07:05:38;;;;;;;1.20;1.20;;;9.80;99.90;9.00;100305;;;;577443;248;24086;-80
2022/04/19 07:08:06;;;;;;;1.40;1.30;;;9.80;99.90;9.00;100303;;;;568764;249;24164;-81
2022/04/19 07:10:34;;;;;;;1.47;1.37;;;9.80;99.90;9.00;100303;;;;568712;249;24121;-81
2022/04/19 07:13:05;;;;;;;2.93;0.93;;;9.80;99.90;9.00;100303;;;;576820;247;24108;-82
2022/04/19 07:15:30;;;;;;;2.13;1.20;;;9.80;99.90;9.20;100302;;;;578433;244;24093;-83
2022/04/19 07:17:58;;;;;;;0.87;0.87;;;9.90;99.90;9.40;100332;;;;567268;253;24140;-82
2022/04/19 07:28:45;;;;;;;5.10;1.70;;;10.50;99.90;9.60;100333;;;;560574;252;24145;-81
2022/04/19 07:31:13;;;;;;;4.47;0.90;;;10.50;99.90;9.80;100334;;;;559937;252;24120;-82
2022/04/19 07:33:41;;;;;;;2.30;1.50;;;10.60;99.90;9.80;100326;;;;559631;252;24210;-82
2022/04/19 07:36:10;;;;;;;3.50;1.70;;;10.60;99.90;10.00;100344;;;;559735;253;24136;-82
2022/04/19 07:38:37;;;;;;;5.60;1.97;;;10.80;99.90;10.30;100337;;;;559466;253;24168;-82
2022/04/19 07:41:06;;;;;;;0.97;0.90;;;11.00;99.90;10.50;100352;;;;559764;253;24129;-83
2022/04/19 07:43:33;;;;;;;3.10;1.60;;;11.30;99.90;10.60;100337;;;;560417;248;24142;-82
2022/04/19 07:46:04;;;;;;;2.37;1.60;;;11.30;99.90;10.80;100343;;;;562790;251;24196;-83
2022/04/19 07:48:29;;;;;;;1.83;1.60;;;11.60;99.70;10.80;100335;;;;572379;245;24055;-83
2022/04/19 07:51:00;;;;;;;4.03;1.83;;;11.60;98.50;10.50;100350;;;;567882;249;24140;-85
2022/04/19 07:53:24;;;;;;;1.97;1.40;;;11.50;98.90;10.50;100338;;;;571508;249;24183;-83
2022/04/19 07:55:55;;;;;;;2.57;1.87;;;11.40;99.90;10.50;100355;;;;560774;252;24133;-83
2022/04/19 07:58:20;;;;;;;1.97;1.37;;;11.40;99.90;10.50;100345;;;;568150;249;24121;-84
2022/04/19 08:00:48;;;;;;;1.47;1.37;;;11.30;99.90;10.60;100349;;;;562235;251;24125;-84
2022/04/19 08:03:17;;;;;;;3.80;1.87;;;11.50;99.90;10.70;100369;;;;562378;251;24141;-82
2022/04/19 08:05:46;;;;;;;1.83;1.53;;;11.80;99.90;11.00;100360;;;;562479;251;24177;-83
2022/04/19 08:08:13;;;;;;;1.57;1.47;;;11.70;99.90;11.60;100360;;;;562394;251;24152;-84
2022/04/19 08:10:41;;;;;;;2.27;1.53;;;12.30;99.90;12.50;100358;;;;562648;251;25363;-84
2022/04/19 08:13:09;;;;;;;4.27;2.30;;;13.10;99.90;13.90;100361;;;;562552;251;24125;-82
2022/04/19 08:15:37;;;;;;;6.43;2.37;;;14.30;99.00;14.70;100362;;;;562408;251;24132;-82
2022/04/19 08:18:05;;;;;;;2.10;1.90;;;15.40;94.50;15.00;100350;;;;562530;251;24093;-83
2022/04/19 08:20:33;;;;;;;3.70;2.10;;;15.80;92.10;15.00;100344;;;;562388;251;24121;-86
2022/04/19 08:23:01;;;;;;;6.67;2.53;;;16.00;90.90;15.10;100354;;;;562680;251;24097;-86
2022/04/19 08:25:32;;;;;;;2.13;1.83;;;16.00;89.40;14.50;100340;;;;562470;251;24115;-85
2022/04/19 08:27:57;;;;;;;3.30;2.13;;;15.70;86.40;13.80;100349;;;;562435;251;24203;-85
2022/04/19 08:30:28;;;;;;;3.30;2.37;;;15.10;87.30;13.10;100341;;;;562548;251;24179;-82
2022/04/19 08:32:53;;;;;;;5.30;2.50;;;14.50;89.20;12.70;100360;;;;566287;248;35948;-85
2022/04/19 08:35:20;;;;;;;4.57;2.70;;;13.90;90.90;12.40;100373;;;;558391;250;37185;-84
2022/04/19 08:37:49;;;;;;;2.30;2.10;;;13.50;92.30;12.10;100378;;;;563839;250;24149;-84
2022/04/19 08:40:19;;;;;;;6.63;2.17;;;13.20;93.60;11.90;100379;;;;564051;251;24150;-82
2022/04/19 08:42:48;;;;;;;8.17;2.17;;;12.90;94.00;11.70;100380;;;;572139;251;24108;-86
2022/04/19 08:45:13;;;;;;;2.30;2.10;;;12.70;94.90;11.40;100384;;;;563759;251;24103;-84
2022/04/19 08:47:47;;;;;;;1.70;1.60;;;12.50;95.50;11.30;100386;;;;564093;250;24138;-84
2022/04/19 08:50:18;;;;;;;7.17;2.07;;;12.30;96.20;11.40;100377;;;;564997;251;24161;-85
2022/04/19 08:52:46;;;;;;;4.20;2.20;;;12.20;97.00;11.50;100376;;;;564395;251;24194;-82
2022/04/19 08:58:01;;;;;;;3.43;2.00;;;12.30;96.70;11.40;100372;;;;569556;246;24148;-85
2022/04/19 09:00:29;;;;;;;4.67;2.00;;;12.30;96.60;11.40;100382;;;;564197;251;24111;-85
2022/04/19 09:03:01;;;;;;;1.93;1.63;;;12.30;96.90;11.40;100382;;;;564368;251;24110;-85
2022/04/19 09:05:27;;;;;;;1.80;1.70;;;12.30;95.80;11.50;100385;;;;554204;255;24198;-85
2022/04/19 09:07:56;;;;;;;3.00;1.83;;;12.40;95.90;11.70;100383;;;;557296;253;25174;-84
2022/04/19 09:10:29;;;;;;;4.00;2.67;;;12.50;95.30;11.70;100386;;;;562766;249;24155;-86
2022/04/19 09:13:09;;;;;;;4.37;2.43;;;12.60;95.40;11.80;100384;;;;570641;252;24105;-84
2022/04/19 09:15:42;;;;;;;2.33;2.23;;;12.70;95.10;11.70;100383;;;;567748;251;24144;-86
2022/04/19 09:18:32;;;;;;;2.27;2.07;;;12.60;95.30;11.50;100390;;;;566812;247;24103;-85
2022/04/19 09:20:59;;;;;;;2.37;1.90;;;12.50;94.50;11.40;100400;;;;561295;252;24219;-84
2022/04/19 09:23:29;;;;;;;3.67;2.07;;;12.30;95.20;11.40;100388;;;;563972;250;24158;-87
2022/04/19 09:26:00;;;;;;;2.27;2.07;;;12.30;95.10;11.50;100382;;;;571670;245;24069;-85
2022/04/19 09:28:27;;;;;;;3.73;2.30;;;12.40;94.70;11.50;100382;;;;564352;251;24070;-84
2022/04/19 09:30:52;;;;;;;2.70;2.50;;;12.40;94.40;11.40;100378;;;;572454;245;24110;-85
2022/04/19 09:33:24;;;;;;;2.53;2.00;;;12.30;94.70;11.30;100401;;;;578488;241;25065;-86
2022/04/19 09:35:53;;;;;;;3.63;1.83;;;12.30;94.40;11.60;100411;;;;569805;245;24103;-84
2022/04/19 09:38:19;;;;;;;2.50;2.30;;;12.40;94.40;11.70;100402;;;;571954;245;24077;-84
2022/04/19 09:40:51;;;;;;;2.90;2.70;;;12.50;94.50;11.90;100410;;;;571946;247;24054;-85
2022/04/19 09:43:26;;;;;;;3.27;2.50;;;12.70;93.90;12.10;100402;;;;563402;251;24064;-86
2022/04/19 09:45:58;;;;;;;2.30;2.03;;;12.80;92.90;12.40;100397;;;;573804;246;24048;-85
2022/04/19 09:48:28;;;;;;;7.57;2.30;;;13.20;93.60;12.90;100400;;;;572171;245;24173;-82
2022/04/19 09:51:02;;;;;;;2.70;1.80;;;13.90;92.00;13.20;100396;;;;571659;249;24191;-83
2022/04/19 09:53:28;;;;;;;2.87;2.40;;;14.00;91.40;13.20;100407;;;;572815;250;24128;-82
2022/04/19 09:55:57;;;;;;;3.27;2.43;;;14.10;90.80;13.30;100404;;;;573317;246;25185;-83
2022/04/19 09:58:25;;;;;;;3.53;2.17;;;14.10;90.80;13.40;100405;;;;568086;250;24171;-85
2022/04/19 10:00:57;;;;;;;3.37;2.50;;;14.30;90.50;13.70;100403;;;;554789;251;24055;-85
2022/04/19 10:08:10;;;;;;;5.23;2.20;;;15.10;88.90;15.20;100419;;;;562271;251;24054;-86
2022/04/19 10:08:39;;;;;;;2.70;2.00;;;16.30;80.50;15.40;100416;;;;568704;252;24169;-86
2022/04/19 10:11:12;;;;;;;2.47;2.27;;;16.30;80.50;15.30;100416;;;;560599;255;24135;-84
2022/04/19 10:13:35;;;;;;;2.00;1.90;;;16.30;80.30;15.00;100419;;;;563932;250;24106;-85
2022/04/19 10:16:07;;;;;;;4.10;2.40;;;16.20;78.10;14.50;100421;;;;565795;250;24122;-86
2022/04/19 10:18:34;;;;;;;3.27;1.90;;;15.70;78.50;14.30;100418;;;;568220;245;24085;-83
2022/04/19 10:20:59;;;;;;;5.13;2.00;;;15.50;80.80;14.20;100423;;;;563552;246;24117;-85
2022/04/19 10:23:36;;;;;;;3.00;2.00;;;15.20;82.20;13.80;100414;;;;573530;246;24046;-83
2022/04/19 10:26:13;;;;;;;2.10;2.00;;;15.00;82.70;13.70;100415;;;;576373;245;24123;-84
2022/04/19 10:28:44;;;;;;;5.00;2.17;;;14.70;84.40;13.70;100419;;;;553910;255;24097;-84
2022/04/19 10:31:08;;;;;;;3.90;2.80;;;14.60;85.70;13.70;100415;;;;552773;256;24158;-85
2022/04/19 10:33:39;;;;;;;5.20;2.93;;;14.60;85.10;13.50;100413;;;;562854;251;24119;-84
2022/04/19 10:36:23;;;;;;;5.40;3.17;;;14.20;84.90;13.30;100419;;;;569533;251;24127;-85
2022/04/19 10:39:13;;;;;;;5.60;2.37;;;14.20;84.90;13.00;100422;;;;562793;251;24101;-87
2022/04/19 10:42:02;;;;;;;4.00;2.47;;;14.00;84.80;12.80;100422;;;;562782;251;24085;-87
2022/04/19 10:44:50;;;;;;;2.90;2.40;;;13.70;86.30;12.90;100429;;;;566798;245;24176;-87
2022/04/19 10:47:18;;;;;;;2.97;2.10;;;13.70;87.50;13.00;100408;;;;562786;251;24117;-85
2022/04/19 10:50:04;;;;;;;7.80;2.53;;;13.80;88.00;13.30;100418;;;;562347;251;24162;-85
2022/04/19 10:52:48;;;;;;;2.20;2.07;;;14.00;86.70;13.30;100425;;;;562146;251;24123;-84
2022/04/19 10:55:25;;;;;;;4.20;2.77;;;14.10;86.40;13.50;100419;;;;565470;250;24164;-85
2022/04/19 10:58:08;;;;;;;3.70;2.70;;;14.30;85.50;13.50;100425;;;;555718;254;24158;-84
2022/04/19 11:00:59;;;;;;;3.67;2.20;;;14.30;85.00;13.60;100417;;;;553774;255;24152;-86
2022/04/19 11:03:35;;;;;;;2.90;2.53;;;14.40;86.00;13.70;100434;;;;564490;250;24126;-84
2022/04/19 11:06:04;;;;;;;3.40;2.43;;;14.50;84.80;13.80;100424;;;;575930;246;24178;-83
2022/04/19 11:08:31;;;;;;;3.47;2.97;;;14.60;84.70;13.60;100432;;;;561872;251;24136;-83
2022/04/19 11:11:04;;;;;;;5.20;2.73;;;14.40;84.80;13.60;100430;;;;565108;251;24154;-83
2022/04/19 11:13:37;;;;;;;6.07;3.30;;;14.50;84.70;13.80;100423;;;;577955;242;24044;-84
2022/04/19 11:16:05;;;;;;;4.20;2.77;;;14.50;85.10;14.00;100427;;;;577085;245;24120;-84
2022/04/19 11:18:43;;;;;;;5.87;3.03;;;14.70;84.10;13.90;100432;;;;576633;249;24077;-84
2022/04/19 11:21:06;;;;;;;5.63;3.37;;;14.70;83.90;13.80;100426;;;;572549;246;24111;-84
2022/04/19 11:23:51;;;;;;;3.20;2.90;;;14.60;83.70;13.70;100425;;;;573470;246;24084;-85
2022/04/19 11:26:27;;;;;;;7.80;3.03;;;14.50;84.20;13.60;100418;;;;562860;251;24148;-84
2022/04/19 11:29:11;;;;;;;3.13;2.83;;;14.40;85.20;13.50;100422;;;;573689;246;24056;-85
2022/04/19 11:31:44;;;;;;;5.90;3.40;;;14.30;84.80;13.60;100422;;;;570917;251;24164;-85
2022/04/19 11:34:12;;;;;;;4.10;2.93;;;14.30;86.00;13.70;100422;;;;567234;253;24200;-86
2022/04/19 11:36:44;;;;;;;5.23;3.47;;;14.40;85.60;13.90;100420;;;;571320;250;24066;-83
2022/04/19 11:39:08;;;;;;;7.00;4.10;;;14.50;84.40;14.00;100429;;;;568009;249;24085;-84
2022/04/19 11:46:53;;;;;;;4.37;2.70;;;14.70;83.50;13.80;100416;;;;551790;256;24134;-84
2022/04/19 11:49:21;;;;;;;3.20;2.87;;;14.70;83.20;13.80;100408;;;;552460;255;24186;-83
2022/04/19 11:51:55;;;;;;;3.37;2.87;;;14.70;84.30;13.90;100421;;;;554643;251;24150;-82
2022/04/19 11:54:32;;;;;;;6.40;3.20;;;14.70;84.70;13.90;100415;;;;565514;245;24080;-83
2022/04/19 11:57:03;;;;;;;3.30;3.10;;;14.70;85.50;13.80;100417;;;;576406;245;26299;-83
2022/04/19 11:59:27;;;;;;;4.07;2.60;;;14.60;85.10;13.70;100418;;;;586918;241;24044;-81
2022/04/19 12:01:59;;;;;;;3.13;2.83;;;14.50;85.30;13.60;100412;;;;576223;245;27331;-85
2022/04/19 12:04:26;;;;;;;6.70;3.47;;;14.40;86.00;13.50;100422;;;;573094;245;24146;-82